Time;durP1;ratioP1;P1;durP2;ratioP2;P2;SDS_P1;SDS_P2;PMS_P1;PMS_P2;Temp;Humidity;BMP_temperature;BMP_pressure;BME280_temperature;BME280_humidity;BME280_pressure;Samples;Min_cycle;Max_cycle;Signal;HPM_P1;HPM_P2
2021/07/03 00:01:40;;;;;;;21.73;11.65;;;;;;;21.49;69.43;99712.89;1829333;77;22205;-58
2021/07/03 00:04:13;;;;;;;19.50;12.03;;;;;;;21.50;69.26;99710.13;1819885;77;22581;-53
2021/07/03 00:06:47;;;;;;;22.35;11.18;;;;;;;21.49;69.24;99711.09;1800297;77;22219;-52
2021/07/03 00:09:20;;;;;;;20.77;11.30;;;;;;;21.49;69.14;99708.41;1834464;77;23211;-57
2021/07/03 00:11:53;;;;;;;15.25;10.45;;;;;;;21.46;69.06;99705.94;1807793;77;22186;-53
2021/07/03 00:14:26;;;;;;;18.00;10.85;;;;;;;21.40;69.07;99701.00;1827746;77;22170;-58
2021/07/03 00:16:59;;;;;;;22.40;10.35;;;;;;;21.34;69.09;99702.29;1815562;77;22614;-58
2021/07/03 00:19:33;;;;;;;19.90;10.50;;;;;;;21.32;69.03;99693.97;1819798;77;22606;-52
2021/07/03 00:22:06;;;;;;;19.98;11.43;;;;;;;21.37;68.80;99698.53;1804925;77;22166;-57
2021/07/03 00:24:39;;;;;;;20.72;10.23;;;;;;;21.37;68.79;99702.55;1813438;77;22186;-52
2021/07/03 00:27:32;;;;;;;18.98;10.32;;;;;;;21.25;68.89;99701.08;1834520;77;22634;-52
2021/07/03 00:30:07;;;;;;;16.35;9.40;;;;;;;21.22;69.06;99700.44;1832137;77;22120;-58
2021/07/03 00:32:40;;;;;;;22.85;10.72;;;;;;;21.21;68.97;99694.22;1851775;77;22151;-53
2021/07/03 00:35:33;;;;;;;20.40;10.70;;;;;;;21.20;68.76;99697.01;1826220;77;22182;-52
2021/07/03 00:38:06;;;;;;;18.55;10.78;;;;;;;21.17;68.75;99695.87;1818465;77;22688;-57
2021/07/03 00:40:39;;;;;;;14.87;10.00;;;;;;;21.15;68.74;99701.81;1819886;77;22229;-58
2021/07/03 00:43:31;;;;;;;17.70;10.48;;;;;;;21.13;68.66;99696.58;1834422;77;22144;-52
2021/07/03 00:46:05;;;;;;;22.90;12.07;;;;;;;21.09;68.55;99695.91;1803700;77;22218;-53
2021/07/03 00:48:38;;;;;;;23.47;11.48;;;;;;;21.04;68.54;99694.02;1837072;77;22144;-58
2021/07/03 00:51:30;;;;;;;23.00;12.58;;;;;;;21.02;68.49;99686.58;1806849;77;22229;-53
2021/07/03 00:54:04;;;;;;;21.93;9.90;;;;;;;20.97;68.52;99690.06;1834371;77;22187;-52
2021/07/03 00:56:37;;;;;;;17.67;10.70;;;;;;;20.94;68.51;99692.45;1803472;77;22236;-52
2021/07/03 00:59:10;;;;;;;18.90;9.90;;;;;;;20.88;68.76;99694.69;1852799;77;22626;-52
2021/07/03 01:01:44;;;;;;;23.62;11.65;;;;;;;20.99;68.35;99693.47;1810721;77;22206;-58
2021/07/03 01:04:18;;;;;;;20.95;11.25;;;;;;;21.01;68.22;99695.56;1829064;77;22590;-52
2021/07/03 01:06:51;;;;;;;19.32;10.88;;;;;;;20.89;68.47;99689.22;1833271;77;22209;-53
2021/07/03 01:09:25;;;;;;;27.05;11.22;;;;;;;20.89;68.48;99683.03;1834515;77;22176;-57
2021/07/03 01:11:59;;;;;;;23.07;10.30;;;;;;;20.84;68.62;99683.31;1807462;77;22209;-57
2021/07/03 01:14:33;;;;;;;21.62;10.95;;;;;;;20.85;68.66;99680.17;1829899;77;22190;-53
2021/07/03 01:17:06;;;;;;;16.10;9.98;;;;;;;20.83;68.90;99684.77;1800219;77;22624;-57
2021/07/03 01:19:39;;;;;;;17.82;10.93;;;;;;;20.89;68.78;99685.70;1834488;77;22188;-57
2021/07/03 01:22:33;;;;;;;21.40;11.25;;;;;;;20.92;68.65;99689.52;1832228;77;22167;-54
2021/07/03 01:25:08;;;;;;;17.17;9.78;;;;;;;20.93;68.62;99688.55;1838300;77;22159;-53
2021/07/03 01:27:41;;;;;;;20.82;10.48;;;;;;;20.95;68.64;99694.16;1853017;77;22183;-52
2021/07/03 01:30:34;;;;;;;16.60;9.85;;;;;;;21.01;68.43;99690.21;1844657;77;22177;-53
2021/07/03 01:33:07;;;;;;;14.90;9.95;;;;;;;21.03;68.45;99694.98;1831414;77;22567;-53
2021/07/03 01:36:00;;;;;;;13.03;10.00;;;;;;;20.97;68.65;99683.84;1789044;77;22640;-53
2021/07/03 01:38:33;;;;;;;15.60;9.40;;;;;;;20.90;68.69;99681.58;1852843;77;22179;-53
2021/07/03 01:41:06;;;;;;;14.23;9.35;;;;;;;20.83;68.89;99682.94;1837118;77;22162;-57
2021/07/03 01:43:40;;;;;;;17.65;9.50;;;;;;;20.82;68.99;99683.05;1795190;77;22200;-58
2021/07/03 01:46:32;;;;;;;17.90;9.55;;;;;;;20.64;69.46;99681.92;1813261;77;22178;-57
2021/07/03 01:49:08;;;;;;;18.67;9.50;;;;;;;20.61;69.60;99684.80;1834490;77;22168;-57
2021/07/03 01:51:41;;;;;;;16.23;9.43;;;;;;;20.48;70.10;99688.30;1801340;77;20164;-53
2021/07/03 01:54:15;;;;;;;18.10;9.43;;;;;;;20.48;70.23;99694.10;1820644;77;22163;-57
2021/07/03 01:56:58;;;;;;;22.50;9.40;;;;;;;20.52;70.10;99694.28;1809695;77;22218;-57
2021/07/03 01:59:50;;;;;;;22.70;10.80;;;;;;;20.48;70.24;99700.32;1834494;77;22152;-54
2021/07/03 02:02:23;;;;;;;14.03;8.78;;;;;;;20.47;70.34;99702.62;1886881;74;22135;-57
2021/07/03 02:04:57;;;;;;;15.55;8.23;;;;;;;20.52;70.27;99698.30;1852804;77;22179;-57
2021/07/03 02:07:30;;;;;;;18.30;8.53;;;;;;;20.52;70.38;99697.45;1834484;77;22204;-57
2021/07/03 02:10:04;;;;;;;14.90;9.25;;;;;;;20.40;70.75;99697.74;1828701;77;22171;-54
2021/07/03 02:12:38;;;;;;;13.90;8.63;;;;;;;20.40;70.77;99693.73;1833679;77;22156;-58
2021/07/03 02:15:11;;;;;;;11.28;7.80;;;;;;;20.41;70.92;99686.97;1831612;77;22583;-58
2021/07/03 02:18:08;;;;;;;12.45;7.92;;;;;;;20.41;70.97;99690.98;1834478;77;22172;-57
2021/07/03 02:20:41;;;;;;;14.15;8.23;;;;;;;20.31;71.29;99685.84;1805295;77;22561;-57
2021/07/03 02:23:16;;;;;;;24.15;9.33;;;;;;;20.30;71.58;99685.45;1852874;77;22167;-53
2021/07/03 02:26:08;;;;;;;17.12;8.58;;;;;;;20.32;71.65;99680.87;1836635;77;22213;-54
2021/07/03 02:28:42;;;;;;;20.05;8.33;;;;;;;20.39;71.73;99686.67;1822758;77;22120;-57
2021/07/03 02:31:15;;;;;;;14.38;7.47;;;;;;;20.34;71.89;99685.16;1816808;77;22230;-53
2021/07/03 02:33:49;;;;;;;14.98;7.58;;;;;;;20.48;71.59;99682.95;1844002;77;22197;-56
2021/07/03 02:36:22;;;;;;;10.30;6.87;;;;;;;20.48;71.80;99678.06;1815604;77;22182;-57
2021/07/03 02:39:16;;;;;;;14.23;7.97;;;;;;;20.46;72.12;99677.30;1828227;77;22139;-54
2021/07/03 02:41:49;;;;;;;16.73;7.78;;;;;;;20.53;72.19;99672.44;1827238;77;22632;-54
2021/07/03 02:44:22;;;;;;;15.20;8.10;;;;;;;20.59;72.11;99674.22;1834497;77;22179;-57
2021/07/03 02:46:55;;;;;;;11.38;8.23;;;;;;;20.67;72.03;99674.20;1793873;77;22216;-57
2021/07/03 02:49:29;;;;;;;16.10;8.78;;;;;;;20.69;72.16;99677.63;1849943;77;22183;-57
2021/07/03 02:52:03;;;;;;;15.95;7.92;;;;;;;20.67;72.37;99676.88;1806596;77;22258;-55
2021/07/03 02:54:55;;;;;;;16.25;8.40;;;;;;;20.70;72.34;99677.52;1833114;77;22148;-57
2021/07/03 02:57:29;;;;;;;13.80;7.78;;;;;;;20.72;72.37;99679.61;1827026;77;22147;-57
2021/07/03 03:00:08;;;;;;;15.10;7.58;;;;;;;20.73;72.41;99686.67;1826172;77;22159;-54
2021/07/03 03:02:41;;;;;;;13.88;8.20;;;;;;;20.75;72.53;99691.45;1834502;77;22129;-57
2021/07/03 03:05:34;;;;;;;13.13;8.68;;;;;;;20.78;72.58;99690.41;1822969;77;22190;-57
2021/07/03 03:08:07;;;;;;;14.78;9.10;;;;;;;20.82;72.70;99691.08;1834314;77;22179;-54
2021/07/03 03:10:40;;;;;;;11.93;9.00;;;;;;;20.87;72.70;99687.13;1816002;77;22186;-54
2021/07/03 03:13:13;;;;;;;18.85;9.30;;;;;;;20.91;72.76;99686.46;1831191;77;22189;-57
2021/07/03 03:15:47;;;;;;;15.35;9.25;;;;;;;20.95;72.79;99691.98;1822744;77;22622;-57
2021/07/03 03:18:20;;;;;;;13.83;9.75;;;;;;;20.98;72.83;99686.40;1836985;77;22539;-54
2021/07/03 03:20:53;;;;;;;17.45;10.10;;;;;;;21.05;72.74;99691.72;1822077;77;22202;-54
2021/07/03 03:23:46;;;;;;;12.80;9.50;;;;;;;21.10;72.84;99691.44;1831353;77;22173;-57
2021/07/03 03:26:19;;;;;;;16.15;9.48;;;;;;;21.12;73.03;99684.62;1816253;77;22218;-57
2021/07/03 03:28:52;;;;;;;12.75;10.03;;;;;;;21.21;72.92;99683.51;1829706;77;22159;-57
2021/07/03 03:31:25;;;;;;;10.90;9.15;;;;;;;21.16;73.19;99684.33;1814530;77;22582;-55
2021/07/03 03:33:59;;;;;;;14.18;10.63;;;;;;;21.19;73.32;99681.45;1823901;77;22587;-55
2021/07/03 03:36:32;;;;;;;11.40;9.53;;;;;;;21.25;73.30;99678.83;1813229;77;22171;-55
2021/07/03 03:39:05;;;;;;;11.28;9.43;;;;;;;21.32;73.23;99685.48;1834621;77;22591;-57
2021/07/03 03:41:38;;;;;;;15.75;10.93;;;;;;;21.36;73.24;99687.45;1810140;77;22222;-58
2021/07/03 03:44:11;;;;;;;15.83;10.93;;;;;;;21.55;72.76;99689.71;1834480;77;22179;-56
2021/07/03 03:46:45;;;;;;;13.32;10.30;;;;;;;21.71;72.45;99697.56;1828261;77;22727;-58
2021/07/03 03:49:19;;;;;;;15.72;10.48;;;;;;;21.75;72.34;99693.70;1789665;77;22190;-55
2021/07/03 03:51:52;;;;;;;17.82;10.70;;;;;;;21.72;72.61;99683.20;1821656;77;22151;-55
2021/07/03 03:54:45;;;;;;;15.35;11.03;;;;;;;21.84;72.46;99683.69;1834367;77;23298;-58
2021/07/03 03:57:22;;;;;;;12.00;10.82;;;;;;;21.86;72.71;99680.05;1820362;77;22604;-58
2021/07/03 03:59:55;;;;;;;12.23;10.90;;;;;;;22.06;72.04;99682.65;1825896;77;22139;-55
2021/07/03 04:02:50;;;;;;;13.60;11.15;;;;;;;22.14;71.87;99679.78;1834448;77;22203;-58
2021/07/03 04:05:23;;;;;;;13.62;12.18;;;;;;;22.21;71.57;99677.53;1828916;77;22170;-55
2021/07/03 04:07:56;;;;;;;15.75;12.20;;;;;;;22.25;71.65;99682.17;1827260;77;22567;-55
2021/07/03 04:10:30;;;;;;;16.87;12.47;;;;;;;22.31;71.53;99686.22;1820439;77;22668;-57
2021/07/03 04:13:03;;;;;;;15.20;12.95;;;;;;;22.35;71.30;99686.38;1847501;78;22159;-55
2021/07/03 04:15:36;;;;;;;15.38;11.80;;;;;;;22.42;71.30;99687.18;1823102;77;22210;-57
2021/07/03 04:18:09;;;;;;;13.72;11.93;;;;;;;22.49;71.18;99685.42;1830391;77;22159;-55
2021/07/03 04:20:42;;;;;;;22.32;13.35;;;;;;;22.63;70.88;99685.73;1824212;77;22716;-55
2021/07/03 04:23:15;;;;;;;14.55;12.50;;;;;;;22.66;70.75;99681.49;1833796;77;22191;-58
2021/07/03 04:26:07;;;;;;;14.70;12.70;;;;;;;22.69;70.49;99694.67;1818510;77;22222;-58
2021/07/03 04:28:40;;;;;;;14.85;13.25;;;;;;;22.77;70.76;99679.34;1820135;77;22191;-54
2021/07/03 04:31:14;;;;;;;15.20;13.25;;;;;;;22.86;70.69;99685.37;1817485;77;22210;-60
2021/07/03 04:33:47;;;;;;;14.85;12.78;;;;;;;22.93;70.58;99677.70;1852844;77;22656;-58
2021/07/03 04:36:20;;;;;;;15.00;13.45;;;;;;;23.01;70.63;99681.51;1830909;77;22199;-59
2021/07/03 04:39:12;;;;;;;14.58;13.20;;;;;;;23.14;70.23;99678.77;1820757;77;22197;-58
2021/07/03 04:41:45;;;;;;;19.23;14.73;;;;;;;23.20;69.98;99675.22;1809582;77;22198;-54
2021/07/03 04:44:19;;;;;;;22.58;14.18;;;;;;;23.22;69.70;99679.55;1834518;77;22176;-54
2021/07/03 04:47:11;;;;;;;16.27;14.05;;;;;;;23.26;69.83;99687.73;1804013;77;22175;-54
2021/07/03 04:49:44;;;;;;;20.37;14.63;;;;;;;23.35;70.01;99680.80;1834603;77;22164;-58
2021/07/03 04:52:36;;;;;;;15.28;13.85;;;;;;;23.49;69.75;99692.31;1852763;77;22175;-58
2021/07/03 04:55:11;;;;;;;15.70;14.30;;;;;;;23.55;69.51;99688.65;1849915;77;22618;-53
2021/07/03 04:57:52;;;;;;;16.05;14.38;;;;;;;23.61;69.39;99690.02;1851983;77;22120;-53
2021/07/03 05:00:44;;;;;;;15.65;13.65;;;;;;;23.73;68.96;99697.59;1811206;77;22214;-53
2021/07/03 05:03:17;;;;;;;15.70;13.68;;;;;;;23.81;68.83;99702.36;1852814;77;22186;-59
2021/07/03 05:05:50;;;;;;;15.78;14.25;;;;;;;23.86;68.49;99707.72;1821420;77;22186;-53
2021/07/03 05:08:23;;;;;;;15.00;13.58;;;;;;;23.94;68.33;99705.80;1848179;77;22183;-59
2021/07/03 05:10:56;;;;;;;15.93;14.00;;;;;;;24.02;67.75;99709.23;1821197;77;22170;-53
2021/07/03 05:13:48;;;;;;;15.20;13.75;;;;;;;24.07;68.10;99715.11;1834495;77;22183;-59
2021/07/03 05:16:21;;;;;;;15.65;14.05;;;;;;;24.12;67.75;99712.03;1810112;77;22761;-59
2021/07/03 05:18:54;;;;;;;17.67;15.28;;;;;;;24.20;68.05;99707.78;1828916;77;22508;-53
2021/07/03 05:21:28;;;;;;;15.90;14.20;;;;;;;24.37;68.05;99712.27;1814300;77;22226;-60
2021/07/03 05:24:20;;;;;;;16.50;14.80;;;;;;;24.56;67.87;99710.78;1842299;77;22155;-60
2021/07/03 05:26:53;;;;;;;16.32;14.63;;;;;;;24.69;67.28;99707.92;1807900;77;22159;-52
2021/07/03 05:29:26;;;;;;;16.52;14.63;;;;;;;24.74;66.88;99710.63;1834486;77;22595;-52
2021/07/03 05:31:59;;;;;;;17.82;14.73;;;;;;;24.82;66.24;99710.48;1807223;77;22653;-52
2021/07/03 05:34:51;;;;;;;16.65;15.05;;;;;;;24.84;65.81;99717.94;1830902;77;22131;-52
2021/07/03 05:37:25;;;;;;;15.88;14.33;;;;;;;24.93;65.99;99719.39;1881418;74;22143;-52
2021/07/03 05:39:58;;;;;;;16.93;15.35;;;;;;;25.09;65.45;99714.92;1834461;77;22159;-59
2021/07/03 05:42:31;;;;;;;16.25;14.20;;;;;;;25.24;65.23;99710.55;1852892;77;22179;-60
2021/07/03 05:45:06;;;;;;;19.45;13.95;;;;;;;25.31;64.88;99712.25;1814694;77;22481;-61
2021/07/03 05:47:39;;;;;;;20.48;14.10;;;;;;;25.46;65.00;99709.61;1834467;77;22179;-60
2021/07/03 05:50:12;;;;;;;17.20;13.75;;;;;;;25.62;64.47;99702.91;1831144;77;22144;-52
2021/07/03 05:52:46;;;;;;;15.40;13.80;;;;;;;25.60;64.34;99702.19;1834298;77;22167;-61
2021/07/03 05:55:19;;;;;;;16.15;13.53;;;;;;;25.60;63.94;99700.36;1810322;77;22249;-60
2021/07/03 05:57:53;;;;;;;15.80;14.18;;;;;;;25.67;64.08;99697.47;1852748;77;22179;-60
2021/07/03 06:00:26;;;;;;;16.20;14.60;;;;;;;25.84;63.50;99691.95;1827305;77;22654;-63
2021/07/03 06:03:00;;;;;;;15.48;13.95;;;;;;;25.98;63.22;99688.06;1825322;77;22162;-53
2021/07/03 06:05:33;;;;;;;14.25;12.85;;;;;;;26.13;62.30;99686.35;1810714;77;22630;-52
2021/07/03 06:08:06;;;;;;;14.13;12.82;;;;;;;26.18;61.68;99685.96;1817436;77;22613;-52
2021/07/03 06:10:39;;;;;;;14.38;12.98;;;;;;;26.24;61.13;99687.61;1818633;77;22185;-62
2021/07/03 06:13:13;;;;;;;14.43;12.73;;;;;;;26.34;61.33;99690.83;1820310;77;22159;-56
2021/07/03 06:16:05;;;;;;;14.45;12.55;;;;;;;26.51;61.11;99690.66;1800963;77;22206;-62
2021/07/03 06:18:38;;;;;;;13.62;12.30;;;;;;;26.73;61.18;99677.41;1818366;77;22582;-63
2021/07/03 06:21:31;;;;;;;13.20;11.90;;;;;;;26.94;60.27;99679.13;1796309;77;22218;-53
2021/07/03 06:24:07;;;;;;;15.18;13.50;;;;;;;27.13;59.80;99676.95;1818015;77;22175;-53
2021/07/03 06:26:40;;;;;;;13.30;11.90;;;;;;;27.25;58.83;99670.38;1797366;77;22201;-62
2021/07/03 06:29:13;;;;;;;13.90;12.53;;;;;;;27.43;58.99;99673.19;1832204;77;22181;-62
2021/07/03 06:31:47;;;;;;;12.90;11.38;;;;;;;27.62;58.17;99679.58;1790515;77;22696;-53
2021/07/03 06:34:39;;;;;;;14.60;11.90;;;;;;;27.69;56.91;99673.08;1816919;77;22535;-53
2021/07/03 06:37:13;;;;;;;13.78;12.18;;;;;;;27.74;56.59;99678.90;1799407;77;22194;-53
2021/07/03 06:39:47;;;;;;;13.88;11.70;;;;;;;27.77;56.80;99678.61;1819230;77;22146;-53
2021/07/03 06:42:42;;;;;;;11.53;10.35;;;;;;;27.95;56.52;99682.73;1797814;77;22170;-54
2021/07/03 06:45:21;;;;;;;12.68;11.38;;;;;;;28.18;55.50;99675.63;1817010;77;22190;-53
2021/07/03 06:47:55;;;;;;;12.45;11.35;;;;;;;28.36;55.41;99672.96;1819440;77;22611;-53
2021/07/03 06:50:32;;;;;;;13.20;11.12;;;;;;;28.55;55.50;99675.17;1813244;77;22221;-53
2021/07/03 06:53:05;;;;;;;11.38;10.28;;;;;;;28.74;54.94;99684.52;1816912;77;22197;-54
2021/07/03 06:55:41;;;;;;;11.15;9.98;;;;;;;28.91;54.57;99675.24;1809751;77;22217;-62
2021/07/03 06:58:15;;;;;;;13.85;10.58;;;;;;;29.07;53.53;99674.53;1818882;77;20115;-63
2021/07/03 07:00:48;;;;;;;10.85;9.80;;;;;;;29.04;53.20;99678.39;1811540;77;22210;-62
2021/07/03 07:03:21;;;;;;;11.00;9.45;;;;;;;29.00;52.68;99681.05;1834439;77;22188;-61
2021/07/03 07:05:55;;;;;;;11.78;9.85;;;;;;;28.90;52.63;99679.80;1821737;77;22626;-63
2021/07/03 07:08:47;;;;;;;12.13;10.38;;;;;;;28.77;52.43;99677.96;1810471;77;22587;-63
2021/07/03 07:11:22;;;;;;;12.58;10.28;;;;;;;28.67;52.55;99682.59;1832882;77;22213;-62
2021/07/03 07:13:55;;;;;;;12.75;9.83;;;;;;;28.60;52.59;99684.55;1834456;77;22184;-62
2021/07/03 07:16:28;;;;;;;10.30;9.23;;;;;;;28.68;53.38;99690.55;1831864;77;22162;-63
2021/07/03 07:19:02;;;;;;;11.90;9.28;;;;;;;28.93;53.19;99680.84;1823985;77;22187;-53
2021/07/03 07:34:17;;;;;;;10.70;9.55;;;;;;;30.02;51.05;99669.77;1827021;77;22605;-58
2021/07/03 07:37:10;;;;;;;9.60;8.70;;;;;;;30.29;49.01;99669.18;1844583;77;23203;-58
2021/07/03 07:39:48;;;;;;;10.03;7.80;;;;;;;30.33;49.20;99669.69;1827701;77;22528;-58
2021/07/03 07:42:40;;;;;;;8.43;7.62;;;;;;;30.28;49.01;99667.48;1805941;77;22689;-58
2021/07/03 07:45:14;;;;;;;10.40;8.70;;;;;;;30.48;48.67;99661.75;1852861;77;22178;-58
2021/07/03 07:47:47;;;;;;;10.90;8.98;;;;;;;30.70;48.32;99667.95;1836038;77;22201;-58
2021/07/03 07:50:40;;;;;;;9.73;8.73;;;;;;;30.71;48.26;99662.86;1826373;77;22170;-58
2021/07/03 07:53:13;;;;;;;9.68;8.68;;;;;;;30.59;48.21;99661.47;1812220;77;22238;-58
2021/07/03 07:55:46;;;;;;;13.68;8.73;;;;;;;30.54;47.96;99664.67;1834498;77;22180;-58
2021/07/03 07:58:19;;;;;;;9.63;8.55;;;;;;;30.56;48.33;99668.56;1828337;77;22234;-58
2021/07/03 08:01:14;;;;;;;9.48;8.53;;;;;;;30.82;48.09;99672.54;1834526;77;22199;-58
2021/07/03 08:03:48;;;;;;;11.55;9.85;;;;;;;31.06;48.19;99664.08;1788959;77;28094;-58
2021/07/03 08:06:21;;;;;;;13.40;9.90;;;;;;;31.34;47.70;99676.50;1828743;77;22566;-58
2021/07/03 08:08:54;;;;;;;9.70;8.63;;;;;;;31.22;46.03;99667.81;1819554;77;22199;-58
2021/07/03 08:11:28;;;;;;;8.73;7.83;;;;;;;31.14;47.26;99675.44;1834546;77;22610;-58
2021/07/03 08:14:01;;;;;;;9.60;8.55;;;;;;;31.30;47.23;99677.33;1834576;77;22175;-59
2021/07/03 08:16:34;;;;;;;9.30;7.85;;;;;;;31.60;46.29;99678.48;1833066;77;22628;-58
2021/07/03 08:19:26;;;;;;;9.08;8.13;;;;;;;31.80;45.87;99682.70;1852856;77;22175;-58
2021/07/03 08:22:00;;;;;;;9.00;8.20;;;;;;;31.85;45.74;99685.23;1828787;77;22170;-59
2021/07/03 08:24:53;;;;;;;8.78;7.78;;;;;;;31.91;45.57;99685.55;1821446;77;22594;-59
2021/07/03 08:27:26;;;;;;;8.73;7.83;;;;;;;32.01;45.81;99682.95;1837987;77;22168;-58
2021/07/03 08:29:59;;;;;;;8.18;7.37;;;;;;;31.87;43.96;99687.80;1834578;77;22167;-58
2021/07/03 08:32:32;;;;;;;8.63;7.37;;;;;;;31.89;44.44;99689.30;1839469;77;22609;-58
2021/07/03 08:35:07;;;;;;;8.15;7.35;;;;;;;31.94;44.54;99683.84;1852924;77;22170;-58
2021/07/03 08:37:41;;;;;;;7.92;7.12;;;;;;;32.23;43.92;99681.86;1808144;77;22217;-59
2021/07/03 08:40:33;;;;;;;7.65;6.40;;;;;;;32.71;42.72;99695.92;1827577;77;22159;-58
2021/07/03 08:45:12;;;;;;;7.40;6.45;;;;;;;32.60;42.70;99686.30;1834482;77;26404;-61
2021/07/03 08:47:47;;;;;;;7.95;5.78;;;;;;;32.66;42.58;99688.80;1814295;77;22194;-58
2021/07/03 08:50:20;;;;;;;8.23;6.90;;;;;;;32.82;42.34;99690.56;1834592;77;22176;-59
2021/07/03 08:53:13;;;;;;;11.33;6.30;;;;;;;32.84;42.82;99691.26;1812140;77;22727;-64
2021/07/03 08:55:46;;;;;;;10.38;6.40;;;;;;;33.06;42.75;99694.51;1826490;77;22131;-60
2021/07/03 08:58:38;;;;;;;9.33;5.80;;;;;;;33.48;41.70;99693.64;1806476;77;22643;-64
2021/07/03 09:01:11;;;;;;;6.50;5.87;;;;;;;33.82;41.78;99695.51;1824211;77;22138;-64
2021/07/03 09:03:54;;;;;;;6.60;6.00;;;;;;;34.11;40.89;99699.28;1821790;77;22294;-64
2021/07/03 09:06:33;;;;;;;7.08;5.50;;;;;;;34.28;40.27;99693.09;1815315;77;22202;-63
2021/07/03 09:09:25;;;;;;;7.35;6.15;;;;;;;34.48;39.37;99711.64;1817307;77;22187;-64
2021/07/03 09:11:59;;;;;;;6.33;5.72;;;;;;;34.61;39.70;99713.68;1828965;77;22166;-60
2021/07/03 09:14:32;;;;;;;8.40;5.30;;;;;;;34.66;38.84;99714.78;1829455;77;22156;-58
2021/07/03 09:17:05;;;;;;;8.05;4.95;;;;;;;34.60;38.75;99710.11;1826904;77;22210;-60
2021/07/03 09:19:57;;;;;;;7.95;5.17;;;;;;;34.67;39.33;99706.91;1822508;77;22136;-58
2021/07/03 09:22:34;;;;;;;5.65;5.03;;;;;;;34.75;38.68;99710.56;1839856;77;22205;-60
2021/07/03 09:25:23;;;;;;;5.80;5.10;;;;;;;34.69;38.43;99704.00;1834640;77;22174;-60
2021/07/03 09:28:18;;;;;;;6.35;5.30;;;;;;;34.62;38.11;99706.67;1796328;77;38416;-58
2021/07/03 09:30:57;;;;;;;6.53;5.03;;;;;;;34.62;38.73;99710.77;1814227;77;22188;-61
2021/07/03 09:33:37;;;;;;;5.15;4.65;;;;;;;34.77;38.73;99707.12;1799406;77;22167;-59
2021/07/03 09:36:13;;;;;;;4.62;4.22;;;;;;;34.77;37.13;99705.25;1840274;77;23378;-60
2021/07/03 09:38:51;;;;;;;6.42;4.15;;;;;;;34.64;36.87;99711.42;1822572;77;22198;-59
2021/07/03 09:41:43;;;;;;;4.85;4.45;;;;;;;34.49;38.30;99706.52;1832151;77;22191;-61
2021/07/03 09:44:16;;;;;;;4.15;3.55;;;;;;;34.47;38.15;99704.48;1825412;77;22143;-62
2021/07/03 09:46:52;;;;;;;5.22;4.10;;;;;;;34.63;37.71;99704.77;1811555;77;22222;-58
2021/07/03 09:49:28;;;;;;;5.47;4.15;;;;;;;34.83;37.39;99705.84;1834495;77;22203;-61
2021/07/03 09:52:01;;;;;;;6.67;4.90;;;;;;;34.89;37.67;99701.47;1830884;77;28512;-60
2021/07/03 09:54:34;;;;;;;6.37;4.42;;;;;;;34.99;37.86;99691.60;1819729;77;22465;-58
2021/07/03 09:57:07;;;;;;;4.40;3.90;;;;;;;35.19;38.18;99687.67;1845368;77;22194;-61
2021/07/03 09:59:40;;;;;;;6.45;4.05;;;;;;;35.41;36.16;99682.19;1834501;77;22203;-58
2021/07/03 10:02:13;;;;;;;5.55;4.28;;;;;;;35.35;36.87;99685.17;1822502;77;22238;-61
2021/07/03 10:05:11;;;;;;;4.25;3.83;;;;;;;35.37;37.37;99682.25;1833814;77;22215;-61
2021/07/03 10:07:50;;;;;;;4.37;3.98;;;;;;;35.50;36.34;99687.00;1818625;77;22171;-62
2021/07/03 10:10:26;;;;;;;5.50;4.40;;;;;;;35.62;37.03;99679.94;1834420;77;22188;-58
2021/07/03 10:13:10;;;;;;;5.17;4.67;;;;;;;35.72;36.64;99683.67;1794235;77;28532;-62
2021/07/03 10:25:01;;;;;;;4.47;3.72;;;;;;;35.39;36.94;99681.53;1816623;77;22606;-58
2021/07/03 10:27:34;;;;;;;10.80;4.08;;;;;;;35.69;36.52;99689.55;1808601;77;22257;-58
2021/07/03 10:30:31;;;;;;;12.90;3.85;;;;;;;36.01;35.84;99682.61;1815684;77;22175;-59
2021/07/03 10:33:20;;;;;;;8.18;3.60;;;;;;;36.38;35.19;99689.20;1813869;77;22206;-58
2021/07/03 10:36:32;;;;;;;4.15;3.05;;;;;;;36.56;34.08;99692.75;1830463;77;22194;-61
2021/07/03 10:39:05;;;;;;;5.55;3.70;;;;;;;36.66;34.37;99690.12;1826093;77;22689;-58
2021/07/03 10:41:40;;;;;;;3.45;3.15;;;;;;;36.69;34.86;99687.83;1819397;77;22218;-61
2021/07/03 10:44:41;;;;;;;4.55;3.30;;;;;;;36.92;33.51;99689.32;1827194;78;22140;-61
2021/07/03 10:47:15;;;;;;;5.50;3.25;;;;;;;36.79;33.05;99688.78;1825328;77;22242;-58
2021/07/03 10:49:48;;;;;;;4.37;2.95;;;;;;;36.70;33.67;99694.13;1852703;77;22654;-58
2021/07/03 10:52:21;;;;;;;4.12;3.20;;;;;;;36.73;33.90;99695.09;1827549;77;22174;-58
2021/07/03 10:55:01;;;;;;;4.97;3.50;;;;;;;36.85;33.59;99698.09;1842705;78;22594;-61
2021/07/03 10:57:42;;;;;;;4.47;3.10;;;;;;;37.04;33.87;99699.20;1820836;77;22242;-61
2021/07/03 11:00:18;;;;;;;4.60;3.30;;;;;;;37.35;33.24;99697.17;1823420;77;22160;-61
2021/07/03 11:03:15;;;;;;;3.98;3.12;;;;;;;37.43;32.78;99685.66;1802659;77;22214;-58
2021/07/03 11:05:48;;;;;;;4.15;3.75;;;;;;;37.51;32.92;99695.09;1834974;78;22131;-58
2021/07/03 11:08:22;;;;;;;5.05;3.30;;;;;;;37.57;32.42;99692.00;1804122;77;22233;-61
2021/07/03 11:10:56;;;;;;;4.83;3.30;;;;;;;37.70;32.50;99691.16;1830052;77;22252;-58
2021/07/03 11:13:30;;;;;;;3.27;2.65;;;;;;;37.94;32.70;99691.85;1816206;78;22214;-61
2021/07/03 11:16:25;;;;;;;3.80;3.15;;;;;;;38.27;32.13;99693.30;1829640;77;22132;-61
2021/07/03 11:19:05;;;;;;;4.25;2.90;;;;;;;38.32;31.39;99693.50;1834361;77;22161;-62
2021/07/03 11:21:39;;;;;;;3.25;2.95;;;;;;;38.44;31.28;99689.03;1833420;77;22211;-62
2021/07/03 11:24:53;;;;;;;4.97;2.92;;;;;;;38.46;30.63;99691.55;1830757;77;22132;-61
2021/07/03 11:27:37;;;;;;;3.40;3.00;;;;;;;38.46;30.77;99692.41;1807177;77;28571;-61
2021/07/03 11:30:17;;;;;;;3.80;2.67;;;;;;;38.33;30.24;99689.17;1847477;78;22171;-58
2021/07/03 11:33:10;;;;;;;3.67;3.00;;;;;;;38.15;31.25;99697.27;1830767;77;22256;-58
2021/07/03 11:35:46;;;;;;;3.75;2.60;;;;;;;37.99;31.30;99691.19;1827921;77;22171;-60
2021/07/03 11:38:22;;;;;;;3.33;2.92;;;;;;;38.09;30.45;99694.33;1821679;77;22234;-62
2021/07/03 11:41:14;;;;;;;3.60;3.12;;;;;;;38.09;31.42;99680.59;1836583;77;22136;-60
2021/07/03 11:43:47;;;;;;;4.95;2.67;;;;;;;38.13;31.57;99695.27;1803533;77;22222;-58
2021/07/03 11:46:39;;;;;;;9.15;2.72;;;;;;;37.98;31.26;99699.11;1832376;77;22140;-58
2021/07/03 11:49:12;;;;;;;4.53;2.40;;;;;;;37.96;31.55;99693.53;1834445;77;22591;-58
2021/07/03 11:52:05;;;;;;;5.17;2.98;;;;;;;38.15;31.17;99684.39;1845920;77;22213;-58
2021/07/03 11:54:38;;;;;;;4.47;2.83;;;;;;;38.37;31.06;99684.06;1815553;77;22182;-62
2021/07/03 11:57:38;;;;;;;4.17;2.83;;;;;;;38.15;30.35;99687.14;1839894;77;22632;-58
2021/07/03 12:00:14;;;;;;;4.25;2.67;;;;;;;37.78;31.21;99688.16;1834497;77;22551;-61
2021/07/03 12:03:12;;;;;;;3.20;2.70;;;;;;;37.55;30.95;99685.88;1797983;77;28066;-61
2021/07/03 12:05:51;;;;;;;2.92;2.55;;;;;;;37.47;31.51;99683.70;1834994;77;22540;-61
2021/07/03 12:08:38;;;;;;;10.32;3.25;;;;;;;37.65;30.28;99676.69;1827361;77;22201;-59
2021/07/03 12:11:14;;;;;;;4.15;2.80;;;;;;;37.78;31.12;99672.55;1834472;77;22132;-58
2021/07/03 12:14:13;;;;;;;4.33;3.15;;;;;;;37.99;30.88;99665.64;1827729;77;22163;-62
2021/07/03 12:16:57;;;;;;;3.00;2.60;;;;;;;38.05;30.03;99659.29;1849942;77;22139;-58
2021/07/03 12:19:49;;;;;;;5.90;2.60;;;;;;;37.77;29.85;99670.86;1834513;77;22603;-61
2021/07/03 12:22:22;;;;;;;4.15;2.67;;;;;;;37.47;31.84;99671.87;1824327;77;22178;-61
2021/07/03 12:24:55;;;;;;;6.60;2.50;;;;;;;37.38;31.97;99673.11;1852857;77;22624;-58
2021/07/03 12:27:28;;;;;;;3.33;2.67;;;;;;;37.55;32.08;99663.41;1822196;77;22166;-58
2021/07/03 12:30:20;;;;;;;4.35;2.20;;;;;;;37.91;31.62;99666.16;1851543;77;22135;-58
2021/07/03 12:33:11;;;;;;;4.12;2.52;;;;;;;37.98;30.25;99668.91;1797040;77;22661;-58
2021/07/03 12:35:54;;;;;;;3.40;2.52;;;;;;;37.63;30.07;99667.31;1834475;77;22136;-58
2021/07/03 12:38:47;;;;;;;10.45;6.12;;;;;;;37.32;31.06;99667.95;1822148;77;22173;-61
2021/07/03 12:41:40;;;;;;;3.83;2.77;;;;;;;36.99;30.78;99664.70;1835258;77;22134;-58